createdAt,value
2023-02-05T00:01:57.081Z,81.87
2023-02-05T00:04:24.507Z,81.48
2023-02-05T00:06:51.374Z,80.70
2023-02-05T00:09:18.600Z,80.45
2023-02-05T00:11:45.515Z,80.39
2023-02-05T00:14:12.835Z,80.55
2023-02-05T00:16:39.741Z,81.20
2023-02-05T00:19:07.661Z,80.99
2023-02-05T00:21:34.603Z,80.81
2023-02-05T00:24:01.805Z,80.95
2023-02-05T00:26:28.848Z,80.99
2023-02-05T00:28:56.549Z,79.98
2023-02-05T00:31:24.265Z,81.00
2023-02-05T00:33:52.232Z,80.96
2023-02-05T00:36:21.287Z,80.77
2023-02-05T00:38:48.675Z,81.04
2023-02-05T00:41:16.650Z,81.36
2023-02-05T00:43:44.406Z,80.19
2023-02-05T00:46:13.480Z,79.98
2023-02-05T00:48:41.800Z,79.31
2023-02-05T00:51:09.403Z,79.50
2023-02-05T00:53:37.064Z,80.08
2023-02-05T00:56:04.542Z,79.80
2023-02-05T00:58:31.994Z,78.67
2023-02-05T01:00:59.155Z,78.52
2023-02-05T01:03:26.459Z,78.60
2023-02-05T01:05:53.375Z,79.10
2023-02-05T01:08:20.581Z,79.04
2023-02-05T01:10:49.450Z,78.06
2023-02-05T01:13:18.343Z,78.76
2023-02-05T01:15:46.338Z,79.05
2023-02-05T01:18:14.279Z,78.54
2023-02-05T01:20:42.578Z,77.81
2023-02-05T01:23:11.592Z,77.66
2023-02-05T01:25:38.681Z,77.97
2023-02-05T01:28:06.930Z,78.51
2023-02-05T01:30:34.997Z,77.60
2023-02-05T01:33:03.551Z,77.47
2023-02-05T01:35:31.339Z,77.95
2023-02-05T01:37:58.784Z,78.06
2023-02-05T01:40:25.686Z,77.99
2023-02-05T01:42:52.904Z,78.56
2023-02-05T01:45:22.638Z,78.31
2023-02-05T01:47:59.041Z,78.71
2023-02-05T01:50:36.541Z,78.57
2023-02-05T01:53:08.639Z,78.67
2023-02-05T01:55:40.233Z,78.55
2023-02-05T01:58:08.478Z,79.57
2023-02-05T02:00:35.496Z,79.33
2023-02-05T02:03:03.932Z,78.48
2023-02-05T02:05:30.942Z,78.22
2023-02-05T02:07:58.421Z,78.79
2023-02-05T02:10:26.312Z,78.67
2023-02-05T02:12:54.884Z,79.28
2023-02-05T02:15:26.073Z,78.23
2023-02-05T02:18:17.912Z,78.36
2023-02-05T02:20:46.501Z,78.64
2023-02-05T02:23:27.783Z,78.86
2023-02-05T02:25:57.765Z,79.32
2023-02-05T02:28:31.007Z,79.12
2023-02-05T02:31:10.818Z,79.11
2023-02-05T02:33:50.529Z,78.85
2023-02-05T02:36:26.943Z,78.34
2023-02-05T02:39:14.017Z,78.97
2023-02-05T02:41:53.902Z,79.12
2023-02-05T02:44:31.153Z,80.40
2023-02-05T02:47:05.665Z,79.40
2023-02-05T02:49:41.272Z,79.47
2023-02-05T02:52:11.044Z,78.87
2023-02-05T02:54:41.412Z,78.90
2023-02-05T02:57:11.296Z,79.39
2023-02-05T02:59:43.100Z,79.34
2023-02-05T03:02:12.946Z,79.62
2023-02-05T03:04:44.198Z,79.13
2023-02-05T03:07:31.585Z,79.32
2023-02-05T03:10:08.262Z,79.40
2023-02-05T03:12:35.461Z,78.95
2023-02-05T03:15:03.252Z,79.31
2023-02-05T03:17:30.713Z,78.67
2023-02-05T03:20:15.390Z,79.11
2023-02-05T03:22:42.639Z,78.38
2023-02-05T03:25:10.677Z,78.65
2023-02-05T03:27:39.144Z,78.78
2023-02-05T03:30:07.978Z,78.56
2023-02-05T03:32:41.355Z,78.24
2023-02-05T03:35:26.887Z,78.34
2023-02-05T03:38:10.727Z,78.99
2023-02-05T03:40:46.200Z,78.75
2023-02-05T03:43:44.334Z,79.08
2023-02-05T03:46:25.189Z,79.02
2023-02-05T03:49:04.460Z,79.76
2023-02-05T03:51:59.473Z,79.94
2023-02-05T03:54:36.846Z,79.37
2023-02-05T03:57:11.646Z,79.26
2023-02-05T03:59:41.247Z,79.99
2023-02-05T04:02:10.571Z,79.77
2023-02-05T04:04:41.132Z,78.26
2023-02-05T04:07:09.251Z,78.23
2023-02-05T04:09:37.102Z,78.58
2023-02-05T04:12:05.265Z,78.02
2023-02-05T04:14:33.437Z,78.52
2023-02-05T04:17:01.104Z,78.37
2023-02-05T04:19:28.133Z,78.29
2023-02-05T04:21:58.446Z,78.30
2023-02-05T04:24:25.495Z,77.78
2023-02-05T04:26:53.402Z,77.62
2023-02-05T04:29:20.837Z,78.23
2023-02-05T04:31:50.920Z,78.56
2023-02-05T04:34:17.877Z,77.65
2023-02-05T04:36:46.080Z,77.67
2023-02-05T04:39:13.166Z,77.81
2023-02-05T04:41:41.306Z,78.10
2023-02-05T04:44:08.347Z,78.54
2023-02-05T04:46:35.606Z,78.33
2023-02-05T04:49:02.642Z,78.79
2023-02-05T04:51:47.850Z,78.64
2023-02-05T04:54:14.989Z,79.03
2023-02-05T04:56:41.930Z,78.62
2023-02-05T04:59:09.218Z,78.46
2023-02-05T05:01:36.492Z,78.59
2023-02-05T05:04:03.683Z,78.49
2023-02-05T05:06:30.998Z,78.78
2023-02-05T05:08:58.175Z,78.71
2023-02-05T05:11:25.838Z,78.58
2023-02-05T05:13:53.355Z,78.95
2023-02-05T05:16:20.542Z,79.26
2023-02-05T05:18:47.805Z,79.57
2023-02-05T05:21:14.778Z,80.22
2023-02-05T05:23:41.944Z,80.28
2023-02-05T05:26:11.401Z,80.34
2023-02-05T05:28:38.795Z,80.29
2023-02-05T05:31:17.315Z,79.87
2023-02-05T05:33:44.625Z,79.99
2023-02-05T05:36:11.618Z,79.39
2023-02-05T05:38:39.005Z,80.14
2023-02-05T05:41:25.242Z,80.15
2023-02-05T05:43:54.413Z,80.15
2023-02-05T05:46:24.229Z,80.05
2023-02-05T05:48:53.528Z,80.11
2023-02-05T05:51:21.918Z,80.81
2023-02-05T05:53:49.237Z,80.34
2023-02-05T05:56:17.042Z,81.20
2023-02-05T05:58:45.225Z,81.45
2023-02-05T06:01:14.065Z,81.63
2023-02-05T06:03:41.303Z,81.49
2023-02-05T06:06:10.461Z,81.49
2023-02-05T06:08:37.834Z,81.60
2023-02-05T06:11:04.840Z,81.45
2023-02-05T06:13:32.100Z,81.61
2023-02-05T06:15:59.062Z,81.42
2023-02-05T06:18:26.286Z,81.67
2023-02-05T06:20:53.207Z,81.54
2023-02-05T06:23:20.649Z,81.33
2023-02-05T06:25:47.752Z,80.89
2023-02-05T06:28:15.015Z,81.31
2023-02-05T06:30:41.942Z,80.90
2023-02-05T06:33:09.229Z,80.87
2023-02-05T06:35:36.666Z,80.55
2023-02-05T06:38:03.951Z,81.52
2023-02-05T06:40:30.858Z,81.88
2023-02-05T06:42:58.122Z,81.39
2023-02-05T06:45:24.986Z,81.00
2023-02-05T06:47:56.242Z,80.43
2023-02-05T06:50:24.144Z,80.60
2023-02-05T06:52:51.658Z,80.26
2023-02-05T06:55:18.868Z,80.27
2023-02-05T06:57:46.107Z,80.17
2023-02-05T07:00:13.994Z,80.44
2023-02-05T07:02:41.378Z,80.70
2023-02-05T07:05:09.085Z,80.53
2023-02-05T07:07:36.322Z,78.99
2023-02-05T07:10:03.578Z,79.03
2023-02-05T07:12:31.131Z,79.56
2023-02-05T07:14:57.997Z,79.26
2023-02-05T07:17:25.469Z,78.84
2023-02-05T07:19:52.444Z,78.28
2023-02-05T07:22:19.201Z,78.31
2023-02-05T07:24:46.417Z,79.02
2023-02-05T07:27:13.341Z,78.70
2023-02-05T07:29:40.537Z,78.43
2023-02-05T07:32:07.710Z,77.67
2023-02-05T07:34:35.224Z,77.43
2023-02-05T07:37:02.185Z,77.35
2023-02-05T07:39:29.416Z,76.98
2023-02-05T07:41:56.562Z,77.44
2023-02-05T07:44:34.822Z,76.92
2023-02-05T07:47:01.673Z,76.45
2023-02-05T07:49:29.258Z,76.41
2023-02-05T07:51:56.414Z,76.76
2023-02-05T07:54:24.642Z,75.84
2023-02-05T07:56:51.661Z,76.17
2023-02-05T07:59:18.794Z,75.74
2023-02-05T08:01:45.637Z,75.67
2023-02-05T08:04:12.879Z,74.71
2023-02-05T08:06:40.645Z,75.23
2023-02-05T08:09:07.810Z,75.77
2023-02-05T08:11:34.758Z,75.37
2023-02-05T08:14:02.447Z,75.24
2023-02-05T08:16:29.517Z,75.27
2023-02-05T08:18:56.736Z,75.71
2023-02-05T08:21:23.739Z,75.91
2023-02-05T08:23:51.252Z,76.04
2023-02-05T08:26:18.913Z,76.02
2023-02-05T08:28:46.284Z,76.38
2023-02-05T08:31:18.473Z,75.68
2023-02-05T08:33:47.818Z,76.15
2023-02-05T08:36:14.776Z,76.00
2023-02-05T08:38:42.279Z,75.87
2023-02-05T08:41:13.678Z,74.48
2023-02-05T08:43:47.322Z,73.97
2023-02-05T08:46:18.685Z,73.63
2023-02-05T08:48:47.635Z,72.18
2023-02-05T08:51:15.394Z,73.16
2023-02-05T08:53:42.582Z,74.08
2023-02-05T08:56:10.899Z,74.45
2023-02-05T08:58:39.338Z,74.89
2023-02-05T09:01:12.861Z,75.50
2023-02-05T09:03:40.529Z,74.31
2023-02-05T09:06:10.001Z,74.89
2023-02-05T09:08:37.676Z,73.68
2023-02-05T09:11:05.305Z,74.10
2023-02-05T09:13:33.674Z,72.80
2023-02-05T09:16:00.576Z,73.14
2023-02-05T09:18:27.867Z,73.60
2023-02-05T09:20:54.878Z,73.69
2023-02-05T09:23:22.909Z,73.57
2023-02-05T09:25:49.890Z,72.94
2023-02-05T09:28:17.379Z,71.15
2023-02-05T09:30:46.204Z,69.49
2023-02-05T09:33:13.798Z,70.31
2023-02-05T09:35:41.357Z,69.58
2023-02-05T09:38:10.024Z,69.25
2023-02-05T09:41:05.468Z,68.49
2023-02-05T09:43:50.760Z,68.82
2023-02-05T09:46:45.247Z,69.99
2023-02-05T09:49:34.830Z,70.98
2023-02-05T09:52:09.154Z,71.13
2023-02-05T09:54:41.927Z,71.77
2023-02-05T09:57:16.360Z,71.91
2023-02-05T09:59:46.946Z,69.84
2023-02-05T10:02:22.613Z,71.34
2023-02-05T10:04:52.419Z,71.78
2023-02-05T10:07:43.397Z,72.59
2023-02-05T10:10:26.794Z,71.55
2023-02-05T10:13:34.726Z,71.10
2023-02-05T10:16:23.291Z,70.80
2023-02-05T10:19:25.467Z,68.55
2023-02-05T10:22:26.620Z,69.08
2023-02-05T10:25:20.890Z,67.24
2023-02-05T10:27:57.262Z,65.82
2023-02-05T10:30:44.846Z,65.66
2023-02-05T10:33:18.906Z,64.62
2023-02-05T10:36:01.048Z,65.22
2023-02-05T10:38:33.915Z,65.17
2023-02-05T10:41:27.063Z,65.78
2023-02-05T10:44:07.687Z,65.00
2023-02-05T10:46:59.191Z,64.63
2023-02-05T10:49:29.796Z,64.98
2023-02-05T10:51:56.803Z,64.17
2023-02-05T10:54:30.504Z,64.14
2023-02-05T10:56:58.788Z,64.88
2023-02-05T10:59:27.979Z,64.81
2023-02-05T11:01:56.890Z,64.88
2023-02-05T11:04:46.179Z,65.54
2023-02-05T11:07:19.771Z,66.29
2023-02-05T11:09:47.033Z,65.59
2023-02-05T11:12:29.193Z,65.51
2023-02-05T11:14:59.659Z,65.97
2023-02-05T11:17:37.048Z,66.41
2023-02-05T11:20:27.405Z,67.81
2023-02-05T11:23:09.463Z,67.42
2023-02-05T11:25:36.806Z,65.92
2023-02-05T11:28:05.640Z,66.49
2023-02-05T11:30:55.926Z,65.92
2023-02-05T11:33:22.434Z,66.25
2023-02-05T11:36:15.613Z,66.66
2023-02-05T11:39:20.816Z,67.90
2023-02-05T11:41:48.612Z,67.39
2023-02-05T11:44:20.338Z,67.67
2023-02-05T11:46:48.023Z,67.41
2023-02-05T11:49:24.865Z,65.76
2023-02-05T11:51:55.678Z,66.35
2023-02-05T11:54:32.558Z,67.28
2023-02-05T11:57:01.417Z,67.51
2023-02-05T11:59:28.795Z,67.57
2023-02-05T12:02:34.330Z,67.47
2023-02-05T12:05:09.406Z,64.58
2023-02-05T12:07:43.190Z,65.15
2023-02-05T12:10:38.381Z,65.98
2023-02-05T12:13:45.571Z,66.59
2023-02-05T12:16:26.940Z,66.32
2023-02-05T12:19:26.587Z,66.83
2023-02-05T12:22:10.518Z,66.70
2023-02-05T12:24:56.500Z,66.31
2023-02-05T12:27:57.587Z,66.30
2023-02-05T12:30:30.627Z,65.90
2023-02-05T12:33:26.233Z,65.10
2023-02-05T12:36:05.650Z,64.52
2023-02-05T12:38:38.397Z,64.91
2023-02-05T12:41:11.687Z,66.00
2023-02-05T12:43:41.156Z,64.58
2023-02-05T12:46:18.282Z,64.78
2023-02-05T12:49:11.850Z,64.43
2023-02-05T12:52:14.359Z,64.32
2023-02-05T12:55:11.685Z,64.71
2023-02-05T12:57:44.767Z,64.29
2023-02-05T13:00:20.554Z,64.09
2023-02-05T13:03:08.972Z,64.13
2023-02-05T13:05:53.055Z,64.87
2023-02-05T13:08:32.133Z,63.99
2023-02-05T13:11:09.607Z,64.55
2023-02-05T13:13:53.729Z,64.70
2023-02-05T13:16:24.096Z,64.33
2023-02-05T13:19:01.544Z,64.42
2023-02-05T13:21:48.013Z,63.64
2023-02-05T13:24:36.934Z,63.90
2023-02-05T13:27:33.297Z,64.52
2023-02-05T13:30:04.843Z,64.90
2023-02-05T13:32:34.424Z,64.00
2023-02-05T13:35:02.079Z,64.30
2023-02-05T13:37:34.798Z,65.21
2023-02-05T13:40:24.157Z,64.58
2023-02-05T13:43:06.131Z,65.53
2023-02-05T13:46:05.791Z,64.91
2023-02-05T13:49:00.409Z,64.72
2023-02-05T13:51:32.274Z,64.23
2023-02-05T13:54:30.736Z,64.35
2023-02-05T13:57:27.316Z,64.17
2023-02-05T13:59:55.902Z,64.63
2023-02-05T14:02:41.993Z,63.98
2023-02-05T14:05:11.083Z,64.80
2023-02-05T14:07:50.128Z,64.07
2023-02-05T14:10:35.183Z,64.52
2023-02-05T14:13:36.773Z,64.51
2023-02-05T14:16:25.466Z,64.01
2023-02-05T14:19:01.761Z,64.49
2023-02-05T14:21:31.552Z,64.84
2023-02-05T14:24:03.931Z,63.90
2023-02-05T14:26:56.346Z,64.47
2023-02-05T14:29:43.793Z,65.92
2023-02-05T14:32:26.044Z,65.41
2023-02-05T14:35:28.925Z,65.56
2023-02-05T14:38:02.521Z,65.89
2023-02-05T14:40:37.958Z,65.22
2023-02-05T14:43:33.421Z,65.84
2023-02-05T14:46:06.166Z,64.76
2023-02-05T14:48:41.723Z,64.86
2023-02-05T14:51:24.827Z,64.04
2023-02-05T14:54:03.072Z,64.04
2023-02-05T14:56:48.046Z,64.20
2023-02-05T14:59:32.063Z,65.22
2023-02-05T15:02:00.170Z,65.56
2023-02-05T15:04:52.870Z,65.62
2023-02-05T15:07:24.965Z,66.50
2023-02-05T15:10:00.426Z,65.81
2023-02-05T15:12:33.401Z,65.51
2023-02-05T15:15:28.147Z,65.34
2023-02-05T15:18:02.393Z,64.88
2023-02-05T15:20:32.575Z,66.63
2023-02-05T15:23:18.263Z,66.94
2023-02-05T15:26:00.698Z,66.66
2023-02-05T15:28:35.318Z,66.00
2023-02-05T15:31:26.053Z,66.91
2023-02-05T15:34:02.182Z,67.07
2023-02-05T15:36:37.615Z,65.50
2023-02-05T15:39:26.997Z,65.38
2023-02-05T15:42:00.035Z,65.59
2023-02-05T15:44:33.580Z,65.45
2023-02-05T15:47:04.341Z,66.01
2023-02-05T15:49:36.890Z,65.96
2023-02-05T15:52:05.882Z,65.92
2023-02-05T15:54:35.934Z,65.92
2023-02-05T15:57:05.327Z,66.29
2023-02-05T15:59:33.887Z,66.43
2023-02-05T16:02:05.867Z,66.38
2023-02-05T16:04:39.020Z,66.77
2023-02-05T16:07:24.026Z,67.44
2023-02-05T16:09:54.570Z,67.47
2023-02-05T16:12:22.074Z,68.54
2023-02-05T16:15:04.765Z,67.11
2023-02-05T16:17:44.725Z,66.03
2023-02-05T16:20:23.415Z,66.04
2023-02-05T16:22:55.856Z,65.82
2023-02-05T16:25:44.222Z,65.14
2023-02-05T16:28:24.683Z,65.33
2023-02-05T16:30:56.246Z,65.08
2023-02-05T16:33:35.927Z,65.39
2023-02-05T16:36:07.213Z,65.05
2023-02-05T16:38:35.521Z,65.48
2023-02-05T16:41:20.580Z,65.95
2023-02-05T16:43:48.103Z,66.71
2023-02-05T16:46:15.667Z,66.26
2023-02-05T16:48:45.573Z,66.02
2023-02-05T16:51:28.131Z,66.61
2023-02-05T16:53:55.013Z,67.41
2023-02-05T16:56:26.135Z,67.73
2023-02-05T16:58:56.399Z,67.66
2023-02-05T17:01:29.928Z,67.37
2023-02-05T17:03:57.380Z,67.47
2023-02-05T17:06:33.959Z,67.87
2023-02-05T17:09:01.309Z,66.21
2023-02-05T17:11:37.327Z,66.77
2023-02-05T17:14:26.066Z,66.21
2023-02-05T17:17:15.615Z,66.76
2023-02-05T17:19:42.849Z,66.26
2023-02-05T17:22:16.307Z,64.98
2023-02-05T17:24:49.339Z,65.08
2023-02-05T17:27:43.491Z,65.81
2023-02-05T17:30:16.258Z,65.39
2023-02-05T17:32:44.642Z,64.88
2023-02-05T17:35:16.007Z,63.60
2023-02-05T17:37:43.433Z,62.66
2023-02-05T17:40:13.208Z,62.98
2023-02-05T17:42:41.067Z,63.06
2023-02-05T17:45:19.799Z,63.13
2023-02-05T17:47:47.665Z,64.04
2023-02-05T17:50:15.510Z,63.90
2023-02-05T17:52:44.611Z,64.20
2023-02-05T17:55:17.255Z,65.16
2023-02-05T17:57:45.407Z,66.24
2023-02-05T18:00:19.458Z,66.43
2023-02-05T18:02:47.036Z,67.01
2023-02-05T18:05:14.312Z,67.32
2023-02-05T18:07:46.312Z,67.50
2023-02-05T18:10:23.607Z,68.46
2023-02-05T18:12:52.001Z,68.81
2023-02-05T18:15:19.846Z,68.94
2023-02-05T18:17:47.774Z,69.64
2023-02-05T18:20:16.253Z,69.02
2023-02-05T18:22:43.448Z,70.42
2023-02-05T18:25:10.392Z,70.08
2023-02-05T18:27:38.256Z,70.90
2023-02-05T18:30:05.859Z,70.25
2023-02-05T18:32:33.324Z,70.81
2023-02-05T18:35:00.547Z,71.43
2023-02-05T18:37:27.998Z,71.76
2023-02-05T18:39:54.979Z,72.53
2023-02-05T18:42:23.222Z,73.22
2023-02-05T18:44:50.336Z,73.36
2023-02-05T18:47:17.522Z,74.20
2023-02-05T18:49:44.629Z,74.01
2023-02-05T18:52:14.068Z,74.16
2023-02-05T18:54:41.004Z,75.28
2023-02-05T18:57:08.290Z,75.92
2023-02-05T18:59:36.871Z,76.06
2023-02-05T19:02:04.158Z,76.25
2023-02-05T19:04:33.152Z,76.30
2023-02-05T19:07:01.187Z,76.92
2023-02-05T19:09:28.616Z,77.37
2023-02-05T19:11:56.321Z,77.75
2023-02-05T19:14:24.763Z,78.47
2023-02-05T19:16:53.072Z,78.83
2023-02-05T19:19:23.417Z,79.27
2023-02-05T19:21:53.684Z,79.43
2023-02-05T19:24:21.613Z,80.42
2023-02-05T19:26:50.004Z,80.51
2023-02-05T19:29:19.513Z,80.75
2023-02-05T19:31:47.298Z,81.42
2023-02-05T19:34:14.711Z,81.89
2023-02-05T19:36:42.492Z,81.72
2023-02-05T19:39:12.082Z,82.11
2023-02-05T19:41:40.071Z,82.30
2023-02-05T19:44:08.684Z,82.22
2023-02-05T19:46:47.260Z,82.83
2023-02-05T19:49:21.841Z,83.02
2023-02-05T19:51:52.086Z,83.13
2023-02-05T19:54:21.579Z,83.42
2023-02-05T19:56:49.488Z,83.92
2023-02-05T19:59:16.875Z,83.29
2023-02-05T20:01:45.227Z,83.65
2023-02-05T20:04:18.592Z,84.04
2023-02-05T20:06:47.037Z,84.59
2023-02-05T20:09:16.340Z,85.12
2023-02-05T20:11:46.839Z,85.30
2023-02-05T20:14:14.947Z,85.73
2023-02-05T20:16:45.138Z,85.71
2023-02-05T20:19:14.447Z,85.83
2023-02-05T20:21:42.242Z,86.04
2023-02-05T20:24:09.697Z,86.01
2023-02-05T20:26:37.771Z,86.45
2023-02-05T20:29:23.948Z,86.15
2023-02-05T20:31:52.580Z,86.50
2023-02-05T20:34:22.625Z,86.38
2023-02-05T20:36:51.748Z,86.33
2023-02-05T20:39:20.279Z,86.31
2023-02-05T20:41:50.008Z,86.77
2023-02-05T20:44:18.140Z,86.81
2023-02-05T20:46:45.479Z,86.75
2023-02-05T20:49:13.532Z,86.96
2023-02-05T20:51:41.337Z,86.67
2023-02-05T20:54:08.508Z,86.88
2023-02-05T20:56:36.034Z,87.40
2023-02-05T20:59:05.263Z,87.71
2023-02-05T21:01:34.734Z,87.79
2023-02-05T21:04:04.014Z,87.90
2023-02-05T21:06:36.930Z,88.25
2023-02-05T21:09:05.855Z,88.36
2023-02-05T21:11:33.313Z,88.66
2023-02-05T21:14:00.275Z,88.64
2023-02-05T21:16:28.281Z,89.01
2023-02-05T21:18:56.291Z,88.99
2023-02-05T21:21:28.925Z,89.02
2023-02-05T21:24:01.040Z,89.21
2023-02-05T21:26:31.669Z,89.36
2023-02-05T21:29:04.588Z,89.46
2023-02-05T21:31:36.271Z,89.21
2023-02-05T21:34:04.945Z,89.68
2023-02-05T21:36:32.312Z,90.01
2023-02-05T21:39:00.348Z,89.96
2023-02-05T21:41:27.890Z,90.15
2023-02-05T21:43:57.530Z,90.20
2023-02-05T21:46:27.080Z,90.37
2023-02-05T21:48:55.887Z,90.50
2023-02-05T21:51:24.945Z,90.50
2023-02-05T21:53:57.212Z,90.67
2023-02-05T21:56:44.764Z,90.72
2023-02-05T21:59:13.036Z,90.58
2023-02-05T22:01:42.130Z,90.88
2023-02-05T22:04:12.573Z,90.95
2023-02-05T22:06:39.817Z,91.12
2023-02-05T22:09:09.126Z,91.43
2023-02-05T22:11:38.539Z,91.47
2023-02-05T22:14:05.456Z,91.55
2023-02-05T22:16:34.318Z,91.62
2023-02-05T22:19:02.363Z,91.64
2023-02-05T22:21:35.363Z,91.52
2023-02-05T22:24:03.642Z,91.56
2023-02-05T22:26:34.388Z,91.68
2023-02-05T22:29:04.597Z,91.95
2023-02-05T22:31:33.142Z,91.53
2023-02-05T22:34:00.052Z,92.06
2023-02-05T22:36:30.030Z,92.10
2023-02-05T22:38:57.405Z,91.95
2023-02-05T22:41:27.158Z,92.14
2023-02-05T22:43:55.584Z,92.42
2023-02-05T22:46:25.002Z,92.56
2023-02-05T22:48:53.566Z,92.72
2023-02-05T22:51:26.858Z,92.94
2023-02-05T22:53:54.560Z,93.13
2023-02-05T22:56:22.367Z,93.02
2023-02-05T22:58:50.836Z,93.14
2023-02-05T23:01:24.017Z,93.08
2023-02-05T23:03:52.282Z,93.37
2023-02-05T23:06:26.231Z,93.48
2023-02-05T23:09:14.965Z,93.62
2023-02-05T23:11:43.218Z,93.70
2023-02-05T23:14:11.811Z,93.74
2023-02-05T23:16:41.832Z,93.56
2023-02-05T23:19:12.549Z,93.83
2023-02-05T23:21:41.782Z,93.81
2023-02-05T23:24:09.192Z,93.62
2023-02-05T23:26:42.718Z,93.57
2023-02-05T23:29:12.389Z,93.74
2023-02-05T23:31:40.673Z,93.81
2023-02-05T23:34:08.446Z,93.78
2023-02-05T23:36:35.647Z,93.97
2023-02-05T23:39:02.631Z,94.20
2023-02-05T23:41:35.851Z,94.49
2023-02-05T23:44:20.171Z,93.88
2023-02-05T23:46:49.128Z,93.63
2023-02-05T23:49:16.193Z,93.19
2023-02-05T23:51:43.725Z,93.70
2023-02-05T23:54:12.101Z,93.77
2023-02-05T23:56:39.993Z,94.21
2023-02-05T23:59:08.314Z,94.26
